createdAt,value
2023-03-12T00:00:28.833Z,79.50
2023-03-12T00:02:52.203Z,79.40
2023-03-12T00:05:15.511Z,79.30
2023-03-12T00:07:39.493Z,79.10
2023-03-12T00:10:02.997Z,78.60
2023-03-12T00:12:27.753Z,78.50
2023-03-12T00:14:51.068Z,78.00
2023-03-12T00:17:14.292Z,77.30
2023-03-12T00:19:37.617Z,77.90
2023-03-12T00:22:00.895Z,78.20
2023-03-12T00:24:24.207Z,77.60
2023-03-12T00:26:47.434Z,77.40
2023-03-12T00:29:12.414Z,77.60
2023-03-12T00:31:35.798Z,77.50
2023-03-12T00:33:59.956Z,77.40
2023-03-12T00:36:27.098Z,77.50
2023-03-12T00:38:50.498Z,77.30
2023-03-12T00:41:13.963Z,77.90
2023-03-12T00:43:37.281Z,77.80
2023-03-12T00:46:01.976Z,78.00
2023-03-12T00:48:25.345Z,78.80
2023-03-12T00:50:48.566Z,80.20
2023-03-12T00:53:12.818Z,79.90
2023-03-12T00:55:36.248Z,79.80
2023-03-12T00:57:59.567Z,79.20
2023-03-12T01:00:23.382Z,78.90
2023-03-12T01:02:48.126Z,79.30
2023-03-12T01:05:13.744Z,79.00
2023-03-12T01:07:37.215Z,78.70
2023-03-12T01:10:00.478Z,78.90
2023-03-12T01:12:23.749Z,79.20
2023-03-12T01:14:47.127Z,79.10
2023-03-12T01:17:10.669Z,79.20
2023-03-12T01:19:35.660Z,79.40
2023-03-12T01:21:58.939Z,80.30
2023-03-12T01:24:22.185Z,80.20
2023-03-12T01:26:45.438Z,79.90
2023-03-12T01:29:08.651Z,80.00
2023-03-12T01:31:32.131Z,80.00
2023-03-12T01:33:55.653Z,79.20
2023-03-12T01:36:23.449Z,79.10
2023-03-12T01:38:46.938Z,78.80
2023-03-12T01:41:10.212Z,78.80
2023-03-12T01:43:35.910Z,78.80
2023-03-12T01:46:25.088Z,78.30
2023-03-12T01:48:55.996Z,78.20
2023-03-12T01:51:22.625Z,77.30
2023-03-12T01:53:50.458Z,77.60
2023-03-12T01:56:16.051Z,77.90
2023-03-12T01:58:42.043Z,78.20
2023-03-12T02:01:05.772Z,77.60
2023-03-12T02:03:30.416Z,77.00
2023-03-12T02:05:57.358Z,77.30
2023-03-12T02:08:23.547Z,77.00
2023-03-12T02:10:47.550Z,76.90
2023-03-12T02:13:12.360Z,76.70
2023-03-12T02:15:41.605Z,76.10
2023-03-12T02:18:05.571Z,76.70
2023-03-12T02:20:37.924Z,77.30
2023-03-12T02:23:07.854Z,77.40
2023-03-12T02:25:37.951Z,76.40
2023-03-12T02:28:04.413Z,76.50
2023-03-12T02:30:31.625Z,77.10
2023-03-12T02:32:56.372Z,77.30
2023-03-12T02:35:19.966Z,77.20
2023-03-12T02:37:51.387Z,77.00
2023-03-12T02:40:20.146Z,77.90
2023-03-12T02:42:45.580Z,77.30
2023-03-12T02:45:09.890Z,77.10
2023-03-12T02:47:33.226Z,77.10
2023-03-12T02:49:56.587Z,77.00
2023-03-12T02:52:19.872Z,77.10
2023-03-12T02:54:44.028Z,77.70
2023-03-12T02:57:07.954Z,77.30
2023-03-12T02:59:33.139Z,77.50
2023-03-12T03:01:59.925Z,76.70
2023-03-12T03:04:24.227Z,76.50
2023-03-12T03:06:48.766Z,76.60
2023-03-12T03:09:12.959Z,76.80
2023-03-12T03:11:36.497Z,76.60
2023-03-12T03:14:03.346Z,76.50
2023-03-12T03:16:28.387Z,76.70
2023-03-12T03:18:52.078Z,76.50
2023-03-12T03:21:17.404Z,76.10
2023-03-12T03:23:41.475Z,76.30
2023-03-12T03:26:05.693Z,76.70
2023-03-12T03:28:31.701Z,76.30
2023-03-12T03:30:58.199Z,76.00
2023-03-12T03:33:23.034Z,76.20
2023-03-12T03:35:46.607Z,77.20
2023-03-12T03:38:09.951Z,77.80
2023-03-12T03:40:33.671Z,76.80
2023-03-12T03:42:57.298Z,76.80
2023-03-12T03:45:20.492Z,77.10
2023-03-12T03:47:43.774Z,76.70
2023-03-12T03:50:11.100Z,76.40
2023-03-12T03:52:34.619Z,76.40
2023-03-12T03:54:59.397Z,76.40
2023-03-12T03:57:22.978Z,76.40
2023-03-12T03:59:46.355Z,76.10
2023-03-12T04:02:09.735Z,76.30
2023-03-12T04:04:35.435Z,76.20
2023-03-12T04:07:00.267Z,76.00
2023-03-12T04:09:23.675Z,76.20
2023-03-12T04:11:47.117Z,76.30
2023-03-12T04:14:11.203Z,76.00
2023-03-12T04:16:37.078Z,76.10
2023-03-12T04:19:01.081Z,76.50
2023-03-12T04:21:24.702Z,75.30
2023-03-12T04:23:49.643Z,75.40
2023-03-12T04:26:13.739Z,74.70
2023-03-12T04:28:38.785Z,75.60
2023-03-12T04:31:06.591Z,75.60
2023-03-12T04:33:40.357Z,76.00
2023-03-12T04:36:05.949Z,76.20
2023-03-12T04:38:32.303Z,75.50
2023-03-12T04:41:01.421Z,76.10
2023-03-12T04:43:25.267Z,76.20
2023-03-12T04:45:48.671Z,75.70
2023-03-12T04:48:11.968Z,75.60
2023-03-12T04:50:35.316Z,76.00
2023-03-12T04:52:58.861Z,75.40
2023-03-12T04:55:22.512Z,74.80
2023-03-12T04:57:47.296Z,75.40
2023-03-12T05:00:13.625Z,75.30
2023-03-12T05:02:38.658Z,75.70
2023-03-12T05:05:01.936Z,75.60
2023-03-12T05:07:29.554Z,76.40
2023-03-12T05:09:52.896Z,77.00
2023-03-12T05:12:16.148Z,77.50
2023-03-12T05:14:41.097Z,77.90
2023-03-12T05:17:06.153Z,77.80
2023-03-12T05:19:30.729Z,78.60
2023-03-12T05:21:54.090Z,78.20
2023-03-12T05:24:18.971Z,77.80
2023-03-12T05:26:42.316Z,78.10
2023-03-12T05:29:12.357Z,78.70
2023-03-12T05:31:37.216Z,78.80
2023-03-12T05:34:02.506Z,79.30
2023-03-12T05:36:26.317Z,79.10
2023-03-12T05:38:49.742Z,79.30
2023-03-12T05:41:21.284Z,79.20
2023-03-12T05:43:45.676Z,79.50
2023-03-12T05:46:09.037Z,79.30
2023-03-12T05:48:34.309Z,79.40
2023-03-12T05:50:59.248Z,79.80
2023-03-12T05:53:23.088Z,80.10
2023-03-12T05:55:46.413Z,80.10
2023-03-12T05:58:10.974Z,80.30
2023-03-12T06:00:37.996Z,80.50
2023-03-12T06:03:02.553Z,80.60
2023-03-12T06:05:27.830Z,80.70
2023-03-12T06:07:51.292Z,81.00
2023-03-12T06:10:14.813Z,80.90
2023-03-12T06:12:38.221Z,80.30
2023-03-12T06:15:01.553Z,80.60
2023-03-12T06:17:24.970Z,80.80
2023-03-12T06:19:52.753Z,81.50
2023-03-12T06:22:18.476Z,81.20
2023-03-12T06:24:42.643Z,81.70
2023-03-12T06:27:06.259Z,81.90
2023-03-12T06:29:29.582Z,82.70
2023-03-12T06:31:53.105Z,83.50
2023-03-12T06:34:16.871Z,84.20
2023-03-12T06:36:40.201Z,84.50
2023-03-12T06:39:08.227Z,84.80
2023-03-12T06:41:31.691Z,85.00
2023-03-12T06:43:55.031Z,85.20
2023-03-12T06:46:21.695Z,86.10
2023-03-12T06:48:46.589Z,86.80
2023-03-12T06:51:11.130Z,87.20
2023-03-12T06:53:34.613Z,87.40
2023-03-12T06:55:59.560Z,87.30
2023-03-12T06:58:23.294Z,87.30
2023-03-12T07:00:46.936Z,87.30
2023-03-12T07:03:10.449Z,87.20
2023-03-12T07:05:33.852Z,87.00
2023-03-12T07:07:57.367Z,87.00
2023-03-12T07:10:21.397Z,86.80
2023-03-12T07:12:46.258Z,86.80
2023-03-12T07:15:10.626Z,86.60
2023-03-12T07:17:34.088Z,86.10
2023-03-12T07:19:57.428Z,86.00
2023-03-12T07:22:20.776Z,86.00
2023-03-12T07:24:43.981Z,85.80
2023-03-12T07:27:07.329Z,85.80
2023-03-12T07:29:31.968Z,85.70
2023-03-12T07:31:55.250Z,85.90
2023-03-12T07:34:18.720Z,85.90
2023-03-12T07:36:42.356Z,85.80
2023-03-12T07:39:06.100Z,85.80
2023-03-12T07:41:29.512Z,85.80
2023-03-12T07:43:53.404Z,85.90
2023-03-12T07:46:18.383Z,85.60
2023-03-12T07:48:44.272Z,85.70
2023-03-12T07:51:08.329Z,85.60
2023-03-12T07:53:31.712Z,85.70
2023-03-12T07:55:56.523Z,86.10
2023-03-12T07:58:19.957Z,85.80
2023-03-12T08:00:43.602Z,85.60
2023-03-12T08:03:08.617Z,85.50
2023-03-12T08:05:32.088Z,85.40
2023-03-12T08:07:56.462Z,85.60
2023-03-12T08:10:21.111Z,85.50
2023-03-12T08:12:44.537Z,85.60
2023-03-12T08:15:09.541Z,85.30
2023-03-12T08:17:32.925Z,85.30
2023-03-12T08:19:57.542Z,85.50
2023-03-12T08:22:20.784Z,86.00
2023-03-12T08:24:44.528Z,86.20
2023-03-12T08:27:08.004Z,87.10
2023-03-12T08:29:33.495Z,87.60
2023-03-12T08:32:04.512Z,88.90
2023-03-12T08:34:28.408Z,88.60
2023-03-12T08:36:53.097Z,88.90
2023-03-12T08:39:16.565Z,89.40
2023-03-12T08:41:39.900Z,89.80
2023-03-12T08:44:03.278Z,90.20
2023-03-12T08:46:26.849Z,90.30
2023-03-12T08:48:50.310Z,90.50
2023-03-12T08:51:16.390Z,90.80
2023-03-12T08:53:41.775Z,90.90
2023-03-12T08:56:06.916Z,91.20
2023-03-12T08:58:30.548Z,91.60
2023-03-12T09:00:54.528Z,91.60
2023-03-12T09:03:18.111Z,91.70
2023-03-12T09:05:41.561Z,92.10
2023-03-12T09:08:05.048Z,92.20
2023-03-12T09:10:31.213Z,92.30
2023-03-12T09:12:54.603Z,92.30
2023-03-12T09:15:18.354Z,92.40
2023-03-12T09:17:42.132Z,92.50
2023-03-12T09:20:08.873Z,92.50
2023-03-12T09:22:32.130Z,92.60
2023-03-12T09:24:55.939Z,92.60
2023-03-12T09:27:20.560Z,93.00
2023-03-12T09:29:58.849Z,93.20
2023-03-12T09:32:23.206Z,93.20
2023-03-12T09:34:46.512Z,93.10
2023-03-12T09:37:09.888Z,93.20
2023-03-12T09:39:33.276Z,93.30
2023-03-12T09:41:56.630Z,93.40
2023-03-12T09:44:30.022Z,93.50
2023-03-12T09:46:57.463Z,93.40
2023-03-12T09:49:27.955Z,93.50
2023-03-12T09:51:57.061Z,93.70
2023-03-12T09:54:29.196Z,93.80
2023-03-12T09:56:53.966Z,93.90
2023-03-12T09:59:17.210Z,93.90
2023-03-12T10:01:45.657Z,93.90
2023-03-12T10:04:58.633Z,94.10
2023-03-12T10:07:29.545Z,94.00
2023-03-12T10:10:29.006Z,94.30
2023-03-12T10:13:10.556Z,94.30
2023-03-12T10:15:45.412Z,94.40
2023-03-12T10:18:24.133Z,94.30
2023-03-12T10:21:05.419Z,94.30
2023-03-12T10:23:44.954Z,94.40
2023-03-12T10:26:14.760Z,94.40
2023-03-12T10:28:43.696Z,94.50
2023-03-12T10:31:15.660Z,94.50
2023-03-12T10:33:47.765Z,94.60
2023-03-12T10:36:18.133Z,94.50
2023-03-12T10:38:41.423Z,94.60
2023-03-12T10:41:16.336Z,94.50
2023-03-12T10:43:39.883Z,94.60
2023-03-12T10:46:25.269Z,94.60
2023-03-12T10:48:50.015Z,94.60
2023-03-12T10:51:14.587Z,94.60
2023-03-12T10:53:40.303Z,94.60
2023-03-12T10:56:08.046Z,94.70
2023-03-12T10:58:37.901Z,94.70
2023-03-12T11:01:04.098Z,94.60
2023-03-12T11:03:28.308Z,94.70
2023-03-12T11:05:56.648Z,94.70
2023-03-12T11:08:24.383Z,94.70
2023-03-12T11:10:49.176Z,94.70
2023-03-12T11:13:32.088Z,94.70
2023-03-12T11:15:56.362Z,94.70
2023-03-12T11:18:32.080Z,94.80
2023-03-12T11:20:59.148Z,94.80
2023-03-12T11:23:27.441Z,94.80
2023-03-12T11:25:59.306Z,94.80
2023-03-12T11:28:29.584Z,94.90
2023-03-12T11:30:55.223Z,95.00
2023-03-12T11:33:18.647Z,95.00
2023-03-12T11:35:52.272Z,95.00
2023-03-12T11:38:21.749Z,95.10
2023-03-12T11:41:07.705Z,95.10
2023-03-12T11:43:50.504Z,95.10
2023-03-12T11:46:27.345Z,95.10
2023-03-12T11:49:04.753Z,95.20
2023-03-12T11:51:43.212Z,95.20
2023-03-12T11:54:51.775Z,95.30
2023-03-12T11:57:27.651Z,95.30
2023-03-12T12:00:12.155Z,95.20
2023-03-12T12:03:16.091Z,95.20
2023-03-12T12:05:50.835Z,95.20
2023-03-12T12:08:35.386Z,95.10
2023-03-12T12:11:09.430Z,94.80
2023-03-12T12:13:45.605Z,94.70
2023-03-12T12:16:26.760Z,94.50
2023-03-12T12:19:06.168Z,94.50
2023-03-12T12:21:46.741Z,94.30
2023-03-12T12:24:24.719Z,94.10
2023-03-12T12:27:00.738Z,94.10
2023-03-12T12:29:38.049Z,93.90
2023-03-12T12:32:05.419Z,93.90
2023-03-12T12:34:55.160Z,93.50
2023-03-12T12:37:26.372Z,93.10
2023-03-12T12:39:58.288Z,92.80
2023-03-12T12:42:31.054Z,92.90
2023-03-12T12:44:56.550Z,92.10
2023-03-12T12:47:26.155Z,91.90
2023-03-12T12:49:52.107Z,91.80
2023-03-12T12:52:20.174Z,91.60
2023-03-12T12:54:57.907Z,91.00
2023-03-12T12:57:29.885Z,89.80
2023-03-12T13:00:20.995Z,89.10
2023-03-12T13:02:47.940Z,88.90
2023-03-12T13:05:23.283Z,88.20
2023-03-12T13:07:46.636Z,87.90
2023-03-12T13:10:53.370Z,88.90
2023-03-12T13:13:27.687Z,87.50
2023-03-12T13:15:51.418Z,87.50
2023-03-12T13:18:26.805Z,88.40
2023-03-12T13:21:14.458Z,88.30
2023-03-12T13:23:45.604Z,87.50
2023-03-12T13:26:19.769Z,87.90
2023-03-12T13:31:39.496Z,87.80
2023-03-12T13:34:51.765Z,87.40
2023-03-12T13:38:01.776Z,87.20
2023-03-12T13:41:00.708Z,87.90
2023-03-12T13:43:52.957Z,87.50
2023-03-12T13:46:41.279Z,87.10
2023-03-12T13:49:17.633Z,86.80
2023-03-12T13:52:02.647Z,86.70
2023-03-12T13:54:32.691Z,86.50
2023-03-12T13:57:01.165Z,87.00
2023-03-12T13:59:27.026Z,87.10
2023-03-12T14:01:59.072Z,86.50
2023-03-12T14:04:27.016Z,85.70
2023-03-12T14:07:07.011Z,85.60
2023-03-12T14:09:40.378Z,86.30
2023-03-12T14:12:10.723Z,85.60
2023-03-12T14:15:05.244Z,85.90
2023-03-12T14:17:32.533Z,84.60
2023-03-12T14:20:01.979Z,84.30
2023-03-12T14:22:27.090Z,83.90
2023-03-12T14:24:54.987Z,83.70
2023-03-12T14:27:24.830Z,83.80
2023-03-12T14:29:53.593Z,83.60
2023-03-12T14:32:21.215Z,83.50
2023-03-12T14:34:49.115Z,83.00
2023-03-12T14:37:18.124Z,82.60
2023-03-12T14:39:45.956Z,82.10
2023-03-12T14:42:10.777Z,81.20
2023-03-12T14:44:37.876Z,81.60
2023-03-12T14:47:04.198Z,81.80
2023-03-12T14:49:28.192Z,81.30
2023-03-12T14:51:52.868Z,79.80
2023-03-12T14:54:20.380Z,79.60
2023-03-12T14:56:46.063Z,80.20
2023-03-12T14:59:25.815Z,80.10
2023-03-12T15:01:49.626Z,79.90
2023-03-12T15:04:19.053Z,78.40
2023-03-12T15:06:47.832Z,78.70
2023-03-12T15:09:22.074Z,78.40
2023-03-12T15:11:45.954Z,77.20
2023-03-12T15:14:15.135Z,76.50
2023-03-12T15:16:38.713Z,75.80
2023-03-12T15:19:04.121Z,74.80
2023-03-12T15:21:27.654Z,73.70
2023-03-12T15:23:51.105Z,74.00
2023-03-12T15:26:29.208Z,74.70
2023-03-12T15:28:58.972Z,75.10
2023-03-12T15:31:22.302Z,74.60
2023-03-12T15:33:46.405Z,74.00
2023-03-12T15:36:27.423Z,74.80
2023-03-12T15:38:53.631Z,74.00
2023-03-12T15:41:23.169Z,73.90
2023-03-12T15:43:50.189Z,73.20
2023-03-12T15:46:14.910Z,73.70
2023-03-12T15:48:40.897Z,73.40
2023-03-12T15:51:04.403Z,73.10
2023-03-12T15:53:32.334Z,73.20
2023-03-12T15:56:09.446Z,73.70
2023-03-12T15:58:36.595Z,71.00
2023-03-12T16:01:12.164Z,71.10
2023-03-12T16:03:35.687Z,69.80
2023-03-12T16:05:59.129Z,70.30
2023-03-12T16:08:28.821Z,68.90
2023-03-12T16:10:52.383Z,68.30
2023-03-12T16:13:18.554Z,68.70
2023-03-12T16:15:43.320Z,69.80
2023-03-12T16:18:06.804Z,70.40
2023-03-12T16:20:30.526Z,70.00
2023-03-12T16:22:53.978Z,70.90
2023-03-12T16:25:17.456Z,70.80
2023-03-12T16:27:49.290Z,69.90
2023-03-12T16:30:18.297Z,69.70
2023-03-12T16:32:43.068Z,69.80
2023-03-12T16:35:14.514Z,69.60
2023-03-12T16:37:37.785Z,69.60
2023-03-12T16:40:01.030Z,70.00
2023-03-12T16:42:24.446Z,70.30
2023-03-12T16:44:48.304Z,70.10
2023-03-12T16:47:13.347Z,69.90
2023-03-12T16:49:38.066Z,70.10
2023-03-12T16:52:01.362Z,70.00
2023-03-12T16:54:24.606Z,70.70
2023-03-12T16:56:49.673Z,70.70
2023-03-12T16:59:26.492Z,70.60
2023-03-12T17:01:49.820Z,71.70
2023-03-12T17:04:13.165Z,71.30
2023-03-12T17:06:39.976Z,72.00
2023-03-12T17:09:03.340Z,71.40
2023-03-12T17:11:32.737Z,71.30
2023-03-12T17:14:00.291Z,71.50
2023-03-12T17:16:24.436Z,71.40
2023-03-12T17:18:48.014Z,71.90
2023-03-12T17:21:13.768Z,72.50
2023-03-12T17:23:38.403Z,72.60
2023-03-12T17:26:01.698Z,72.80
2023-03-12T17:28:24.951Z,73.20
2023-03-12T17:30:48.379Z,72.90
2023-03-12T17:33:15.189Z,73.20
2023-03-12T17:35:38.654Z,72.60
2023-03-12T17:38:02.032Z,72.90
2023-03-12T17:40:26.856Z,73.50
2023-03-12T17:42:50.242Z,72.90
2023-03-12T17:45:13.714Z,73.50
2023-03-12T17:47:37.885Z,73.50
2023-03-12T17:50:01.336Z,73.60
2023-03-12T17:52:24.701Z,73.40
2023-03-12T17:54:48.014Z,72.80
2023-03-12T17:57:12.702Z,72.80
2023-03-12T17:59:36.027Z,72.80
2023-03-12T18:01:59.441Z,73.30
2023-03-12T18:04:22.832Z,73.30
2023-03-12T18:06:47.629Z,73.40
2023-03-12T18:09:10.910Z,73.60
2023-03-12T18:11:34.152Z,73.30
2023-03-12T18:13:59.017Z,73.90
2023-03-12T18:16:22.330Z,74.10
2023-03-12T18:18:45.629Z,74.60
2023-03-12T18:21:08.941Z,75.20
2023-03-12T18:23:32.252Z,74.60
2023-03-12T18:25:55.597Z,74.80
2023-03-12T18:28:19.267Z,74.70
2023-03-12T18:30:46.404Z,74.60
2023-03-12T18:33:09.655Z,75.10
2023-03-12T18:35:33.059Z,74.80
2023-03-12T18:37:56.426Z,75.00
2023-03-12T18:40:19.990Z,75.40
2023-03-12T18:42:44.486Z,74.50
2023-03-12T18:45:09.228Z,74.90
2023-03-12T18:47:34.872Z,75.00
2023-03-12T18:49:58.164Z,74.50
2023-03-12T18:52:21.501Z,74.80
2023-03-12T18:54:44.799Z,74.40
2023-03-12T18:57:08.097Z,75.00
2023-03-12T18:59:32.464Z,74.70
2023-03-12T19:01:55.924Z,75.00
2023-03-12T19:04:21.458Z,75.50
2023-03-12T19:06:51.180Z,75.30
2023-03-12T19:09:15.062Z,75.70
2023-03-12T19:11:38.578Z,75.70
2023-03-12T19:14:03.194Z,76.20
2023-03-12T19:16:26.528Z,76.30
2023-03-12T19:18:51.350Z,76.30
2023-03-12T19:21:16.182Z,76.00
2023-03-12T19:23:39.454Z,76.20
2023-03-12T19:26:02.705Z,76.70
2023-03-12T19:28:26.019Z,77.00
2023-03-12T19:30:49.387Z,77.10
2023-03-12T19:33:12.678Z,77.60
2023-03-12T19:35:39.509Z,77.50
2023-03-12T19:38:04.258Z,76.90
2023-03-12T19:40:27.765Z,77.00
2023-03-12T19:42:51.155Z,77.20
2023-03-12T19:45:14.868Z,77.30
2023-03-12T19:47:38.574Z,77.20
2023-03-12T19:50:02.974Z,77.70
2023-03-12T19:52:26.334Z,78.20
2023-03-12T19:55:03.260Z,78.00
2023-03-12T19:57:27.416Z,78.30
2023-03-12T19:59:50.680Z,78.10
2023-03-12T20:02:15.254Z,78.30
2023-03-12T20:04:38.811Z,78.60
2023-03-12T20:07:02.132Z,78.60
2023-03-12T20:09:25.469Z,79.00
2023-03-12T20:11:50.528Z,79.30
2023-03-12T20:14:13.785Z,79.30
2023-03-12T20:16:37.284Z,79.90
2023-03-12T20:19:00.729Z,79.90
2023-03-12T20:21:24.163Z,79.90
2023-03-12T20:23:47.539Z,80.30
2023-03-12T20:26:11.245Z,80.30
2023-03-12T20:28:35.890Z,80.00
2023-03-12T20:30:59.240Z,80.20
2023-03-12T20:33:22.774Z,80.30
2023-03-12T20:35:47.548Z,80.20
2023-03-12T20:38:11.954Z,80.30
2023-03-12T20:40:35.353Z,80.20
2023-03-12T20:42:58.725Z,80.30
2023-03-12T20:45:23.575Z,80.40
2023-03-12T20:47:46.975Z,80.60
2023-03-12T20:50:12.153Z,80.50
2023-03-12T20:52:35.713Z,80.60
2023-03-12T20:54:59.426Z,81.00
2023-03-12T20:57:22.790Z,80.70
2023-03-12T20:59:46.247Z,80.70
2023-03-12T21:02:15.283Z,80.80
2023-03-12T21:04:39.030Z,81.10
2023-03-12T21:07:02.477Z,81.30
2023-03-12T21:09:25.800Z,81.30
2023-03-12T21:11:49.099Z,81.10
2023-03-12T21:14:12.479Z,81.30
2023-03-12T21:16:35.958Z,80.80
2023-03-12T21:19:01.042Z,80.90
2023-03-12T21:21:24.672Z,80.60
2023-03-12T21:23:48.131Z,80.60
2023-03-12T21:26:13.470Z,80.60
2023-03-12T21:28:36.915Z,80.60
2023-03-12T21:31:06.220Z,80.50
2023-03-12T21:33:29.658Z,80.70
2023-03-12T21:35:54.385Z,80.60
2023-03-12T21:38:17.685Z,80.70
2023-03-12T21:40:41.117Z,80.80
2023-03-12T21:43:04.656Z,80.80
2023-03-12T21:45:28.040Z,80.50
2023-03-12T21:47:51.406Z,80.30
2023-03-12T21:50:14.776Z,80.20
2023-03-12T21:52:42.893Z,80.50
2023-03-12T21:55:09.023Z,79.70
2023-03-12T21:57:32.303Z,79.40
2023-03-12T21:59:55.593Z,79.60
2023-03-12T22:02:18.901Z,79.50
2023-03-12T22:04:42.448Z,80.00
2023-03-12T22:07:05.983Z,79.90
2023-03-12T22:09:30.678Z,80.10
2023-03-12T22:11:54.092Z,79.50
2023-03-12T22:14:17.467Z,78.80
2023-03-12T22:16:40.790Z,78.50
2023-03-12T22:19:04.102Z,79.00
2023-03-12T22:21:28.077Z,78.70
2023-03-12T22:23:53.643Z,78.70
2023-03-12T22:26:19.336Z,78.20
2023-03-12T22:28:42.777Z,78.50
2023-03-12T22:31:08.595Z,78.40
2023-03-12T22:33:32.322Z,78.10
2023-03-12T22:35:56.094Z,78.40
2023-03-12T22:38:19.533Z,78.40
2023-03-12T22:40:43.460Z,77.90
2023-03-12T22:43:08.118Z,78.00
2023-03-12T22:45:31.405Z,78.30
2023-03-12T22:47:54.677Z,78.00
2023-03-12T22:50:18.265Z,78.30
2023-03-12T22:52:41.575Z,78.60
2023-03-12T22:55:05.960Z,78.90
2023-03-12T22:57:29.243Z,79.10
2023-03-12T22:59:53.949Z,78.50
2023-03-12T23:02:17.315Z,78.90
2023-03-12T23:04:40.614Z,78.90
2023-03-12T23:07:13.667Z,78.90
2023-03-12T23:09:38.197Z,78.80
2023-03-12T23:12:01.475Z,79.30
2023-03-12T23:14:24.828Z,78.90
2023-03-12T23:16:49.593Z,78.60
2023-03-12T23:19:12.906Z,79.20
2023-03-12T23:21:36.153Z,78.20
2023-03-12T23:24:00.821Z,78.50
2023-03-12T23:26:27.029Z,78.90
2023-03-12T23:28:53.209Z,78.80
2023-03-12T23:31:17.459Z,78.50
2023-03-12T23:33:42.208Z,78.60
2023-03-12T23:36:08.533Z,78.90
2023-03-12T23:38:33.107Z,78.20
2023-03-12T23:41:01.978Z,78.40
2023-03-12T23:43:25.245Z,79.30
2023-03-12T23:45:48.521Z,79.40
2023-03-12T23:48:11.953Z,79.60
2023-03-12T23:50:37.077Z,79.40
2023-03-12T23:53:00.431Z,79.60
2023-03-12T23:55:23.675Z,79.40
2023-03-12T23:57:47.387Z,80.00
